EDT,Max TemperatureF,Mean TemperatureF,Min TemperatureF,Max Dew PointF,MeanDew PointF,Min DewpointF,Max Humidity, Mean Humidity, Min Humidity, Max Sea Level PressureIn, Mean Sea Level PressureIn, Min Sea Level PressureIn, Max VisibilityMiles, Mean VisibilityMiles, Min VisibilityMiles, Max Wind SpeedMPH, Mean Wind SpeedMPH, Max Gust SpeedMPH,PrecipitationIn, CloudCover, Events, WindDirDegrees
2013-3-1,40,35,30,31,24,18,82,65,48,29.90,29.79,29.69,10,10,10,15,9,21,0.00,8,,299
2013-3-2,36,32,27,18,18,14,63,55,47,29.89,29.86,29.81,10,10,10,15,9,20,0.00,8,,309
2013-3-3,35,30,25,19,16,13,68,55,41,29.89,29.84,29.79,10,10,9,20,11,26,T,8,Snow,299
2013-3-4,37,31,25,19,16,12,75,61,47,30.04,29.96,29.89,10,10,9,21,13,29,T,8,Snow,294
2013-3-5,42,36,29,24,20,18,78,61,44,30.09,30.02,29.90,10,10,10,12,5,15,0.00,5,,352
2013-3-6,43,38,32,27,25,23,69,59,49,30.07,29.95,29.85,10,10,10,20,9,25,0.00,7,,41
2013-3-7,43,37,30,24,21,18,69,54,39,30.20,30.13,30.07,10,10,10,18,8,23,0.00,7,,339
2013-3-8,46,39,31,21,20,19,63,50,37,30.36,30.25,30.18,10,10,10,23,12,31,0.00,5,,314
2013-3-9,57,42,26,27,23,19,81,53,24,30.39,30.33,30.26,10,10,10,13,5,16,0.00,0,,263
2013-3-10,60,44,27,26,21,15,85,54,22,30.30,30.23,30.14,10,10,10,15,5,24,0.00,1,,85
2013-3-11,56,50,43,48,34,23,89,63,36,30.16,30.05,29.85,10,10,7,21,9,30,0.06,5,Rain,98
2013-3-12,54,47,39,49,42,24,93,73,53,29.94,29.81,29.76,10,8,2,18,9,25,0.58,8,Rain,272
2013-3-13,45,37,28,27,23,14,78,60,41,29.99,29.91,29.85,10,10,9,24,9,31,T,5,Snow,268
2013-3-14,39,33,26,19,12,6,75,51,27,30.07,30.01,29.96,10,10,2,31,15,38,T,5,Snow,296
2013-3-15,45,34,22,28,21,12,77,61,45,30.06,29.89,29.75,10,10,10,22,8,29,0.00,6,,281
2013-3-16,36,33,29,29,26,19,92,74,56,29.96,29.82,29.75,10,5,0,9,3,13,0.14,7,Fog-Snow,68
2013-3-17,37,31,25,25,19,14,78,59,40,30.31,30.14,29.96,10,10,10,12,4,16,0.00,6,,332
2013-3-18,32,27,22,28,22,12,92,70,47,30.35,30.12,29.90,10,4,0,21,9,36,0.36,6,Fog-Rain-Snow,81
2013-3-19,46,37,28,34,28,15,100,70,40,29.90,29.81,29.69,10,6,2,26,8,36,0.02,8,Rain-Snow,5
2013-3-20,43,36,29,21,17,14,69,51,32,29.91,29.86,29.79,10,10,10,28,10,40,T,7,,274
2013-3-21,35,27,19,18,11,6,73,55,36,29.86,29.79,29.72,10,10,10,18,9,24,T,4,,281
2013-3-22,40,33,26,21,18,14,81,61,40,29.97,29.86,29.79,10,10,10,22,12,30,0.00,7,,269
2013-3-23,44,36,28,20,18,15,69,51,33,30.00,29.96,29.93,10,10,10,23,10,29,0.00,6,,291
2013-3-24,46,37,27,21,18,15,63,46,28,29.99,29.85,29.67,10,10,10,12,5,15,0.00,3,,17
2013-3-25,37,35,32,34,30,21,96,74,52,29.68,29.59,29.54,10,5,0,13,6,16,0.18,8,Fog-Rain-Snow,114
2013-3-26,51,43,34,31,28,22,89,62,34,29.95,29.81,29.70,10,10,10,17,8,25,T,7,,288
2013-3-27,51,41,31,28,25,21,75,55,34,30.06,29.99,29.95,10,10,10,22,9,26,T,5,,286
2013-3-28,47,41,35,30,26,22,82,60,37,30.21,30.11,30.04,10,10,9,16,8,22,T,8,Snow,294
2013-3-29,51,42,32,30,27,22,76,54,32,30.22,30.18,30.12,10,10,10,13,7,17,0.00,7,,279
2013-3-30,57,42,26,27,22,14,92,56,19,30.23,30.16,30.08,10,10,10,14,4,21,0.00,0,,258
2013-3-31,48,39,29,45,37,21,100,71,42,30.10,29.84,29.72,10,5,1,18,5,24,0.40,6,Rain,140